Time;durP1;ratioP1;P1;durP2;ratioP2;P2;SDS_P1;SDS_P2;PMS_P1;PMS_P2;Temp;Humidity;BMP_temperature;BMP_pressure;BME280_temperature;BME280_humidity;BME280_pressure;Samples;Min_cycle;Max_cycle;Signal;HPM_P1;HPM_P2
2023/04/22 00:01:48;;;;;;;10.95;8.38;;;10.50;99.90;;;;;;4996870;28;20038;-86
2023/04/22 00:04:14;;;;;;;10.15;8.07;;;10.50;99.90;;;;;;4995714;28;20034;-87
2023/04/22 00:06:40;;;;;;;11.18;8.48;;;10.40;99.90;;;;;;4989082;28;20064;-85
2023/04/22 00:09:06;;;;;;;14.25;8.63;;;10.40;99.90;;;;;;4992926;28;20026;-85
2023/04/22 00:11:33;;;;;;;10.18;8.13;;;10.40;99.90;;;;;;4990037;28;20094;-86
2023/04/22 00:14:00;;;;;;;10.45;8.60;;;10.40;99.90;;;;;;5002745;28;20045;-87
2023/04/22 00:16:26;;;;;;;12.18;8.90;;;10.30;99.90;;;;;;4986613;28;20156;-85
2023/04/22 00:18:52;;;;;;;12.40;8.95;;;10.20;99.90;;;;;;5001987;28;20057;-86
2023/04/22 00:21:17;;;;;;;15.55;8.82;;;10.10;99.90;;;;;;4984006;28;20154;-85
2023/04/22 00:23:44;;;;;;;13.35;9.30;;;10.10;99.90;;;;;;4989292;28;20077;-86
2023/04/22 00:26:10;;;;;;;13.68;9.05;;;10.10;99.90;;;;;;4982115;28;20045;-87
2023/04/22 00:28:36;;;;;;;12.88;8.93;;;10.10;99.90;;;;;;4970687;28;20037;-86
2023/04/22 00:31:03;;;;;;;20.52;8.32;;;10.10;99.90;;;;;;4980087;28;20018;-86
2023/04/22 00:33:29;;;;;;;11.48;8.50;;;10.10;99.90;;;;;;4987798;28;20125;-86
2023/04/22 00:35:55;;;;;;;13.32;8.82;;;10.10;99.90;;;;;;4978665;28;20164;-86
2023/04/22 00:38:21;;;;;;;12.90;9.10;;;10.00;99.90;;;;;;4987666;28;20113;-86
2023/04/22 00:40:47;;;;;;;15.48;10.13;;;10.10;99.90;;;;;;4985818;28;20030;-87
2023/04/22 00:43:13;;;;;;;9.65;7.85;;;10.10;99.90;;;;;;4984694;28;20447;-86
2023/04/22 00:45:38;;;;;;;13.93;9.82;;;10.00;99.90;;;;;;4985220;28;20041;-86
2023/04/22 00:48:04;;;;;;;15.05;9.38;;;10.00;99.90;;;;;;4984669;28;20506;-86
2023/04/22 00:50:30;;;;;;;16.80;9.25;;;10.00;99.90;;;;;;4985598;28;20021;-86
2023/04/22 00:52:56;;;;;;;12.07;9.32;;;10.00;99.90;;;;;;4986737;28;20041;-87
2023/04/22 00:55:22;;;;;;;18.42;10.10;;;10.00;99.90;;;;;;4987749;28;20036;-86
2023/04/22 00:57:49;;;;;;;12.70;10.80;;;10.00;99.90;;;;;;4985216;28;20508;-86
2023/04/22 01:00:15;;;;;;;16.23;10.70;;;10.00;99.90;;;;;;4984119;28;20030;-85
2023/04/22 01:02:41;;;;;;;13.18;9.63;;;9.90;99.90;;;;;;4988277;28;20132;-86
2023/04/22 01:05:12;;;;;;;12.13;9.77;;;9.90;99.90;;;;;;5000677;28;20500;-86
2023/04/22 01:07:38;;;;;;;15.85;10.75;;;9.90;99.90;;;;;;4986371;28;20076;-87
2023/04/22 01:10:07;;;;;;;13.77;10.38;;;9.90;99.90;;;;;;4984229;28;20566;-86
2023/04/22 01:12:34;;;;;;;15.05;10.23;;;9.90;99.90;;;;;;4985763;28;20092;-87
2023/04/22 01:15:01;;;;;;;15.43;10.52;;;9.90;99.90;;;;;;4984581;28;20014;-87
2023/04/22 01:17:27;;;;;;;19.33;11.38;;;9.90;99.90;;;;;;4984637;28;20022;-87
2023/04/22 01:19:54;;;;;;;17.60;11.48;;;10.00;99.90;;;;;;5001463;28;20026;-87
2023/04/22 01:22:22;;;;;;;17.50;11.30;;;10.00;99.90;;;;;;4981868;28;20030;-87
2023/04/22 01:24:48;;;;;;;14.50;10.85;;;10.00;99.90;;;;;;4985789;28;20029;-87
2023/04/22 01:27:16;;;;;;;13.18;10.98;;;10.00;99.90;;;;;;5007137;28;20038;-87
2023/04/22 01:29:42;;;;;;;13.20;10.05;;;10.00;99.90;;;;;;5008105;28;20565;-86
2023/04/22 01:32:08;;;;;;;15.10;10.40;;;9.90;99.90;;;;;;4993309;28;20034;-87
2023/04/22 01:34:34;;;;;;;14.93;10.05;;;9.90;99.90;;;;;;4988618;28;20198;-86
2023/04/22 01:36:59;;;;;;;16.05;11.38;;;9.80;99.90;;;;;;4983456;28;20030;-86
2023/04/22 01:39:26;;;;;;;16.77;10.73;;;9.80;99.90;;;;;;4988439;28;20037;-86
2023/04/22 01:41:52;;;;;;;16.60;11.25;;;9.90;99.90;;;;;;4985807;28;20331;-87
2023/04/22 01:44:18;;;;;;;17.08;11.73;;;9.90;99.90;;;;;;4985814;28;20076;-85
2023/04/22 01:46:44;;;;;;;16.45;10.77;;;10.00;99.90;;;;;;4986482;28;20238;-86
2023/04/22 01:49:10;;;;;;;17.95;11.88;;;10.00;99.90;;;;;;4983473;28;20073;-86
2023/04/22 01:51:36;;;;;;;14.88;10.65;;;9.90;99.90;;;;;;4984526;28;20041;-86
2023/04/22 01:54:03;;;;;;;14.45;10.18;;;9.90;99.90;;;;;;4983602;28;20512;-87
2023/04/22 01:56:31;;;;;;;20.45;11.20;;;9.90;99.90;;;;;;4987306;28;20042;-87
2023/04/22 01:58:57;;;;;;;16.40;10.98;;;9.90;99.90;;;;;;4982795;28;20127;-86
2023/04/22 02:01:23;;;;;;;13.70;10.65;;;9.90;99.90;;;;;;4986913;28;20022;-87
2023/04/22 02:03:48;;;;;;;17.95;11.70;;;9.90;99.90;;;;;;4990835;28;20072;-88
2023/04/22 02:06:16;;;;;;;18.90;11.77;;;9.80;99.90;;;;;;4986829;28;20026;-87
2023/04/22 02:08:41;;;;;;;16.15;12.02;;;9.80;99.90;;;;;;4987694;28;20029;-86
2023/04/22 02:11:07;;;;;;;17.65;11.27;;;9.80;99.90;;;;;;4985523;28;20097;-88
2023/04/22 02:13:40;;;;;;;21.30;11.80;;;9.80;99.90;;;;;;4984042;28;20060;-87
2023/04/22 02:16:06;;;;;;;17.67;10.88;;;9.80;99.90;;;;;;4983221;28;20026;-86
2023/04/22 02:18:32;;;;;;;19.90;12.35;;;9.80;99.90;;;;;;4986959;28;20026;-87
2023/04/22 02:20:58;;;;;;;18.30;11.05;;;9.80;99.90;;;;;;4989828;28;20558;-88
2023/04/22 02:23:24;;;;;;;16.40;11.70;;;9.80;99.90;;;;;;4984007;28;20478;-88
2023/04/22 02:25:58;;;;;;;16.83;11.50;;;9.80;99.90;;;;;;4985184;28;20068;-86
2023/04/22 02:28:24;;;;;;;19.02;12.25;;;9.80;99.90;;;;;;4999445;28;20034;-87
2023/04/22 02:30:50;;;;;;;20.83;11.38;;;9.80;99.90;;;;;;4984665;28;20033;-87
2023/04/22 02:33:15;;;;;;;18.05;12.90;;;9.80;99.90;;;;;;4984852;28;20036;-88
2023/04/22 02:35:48;;;;;;;19.40;13.05;;;9.80;99.90;;;;;;4986395;28;20073;-87
2023/04/22 02:38:14;;;;;;;;;;;9.80;99.90;;;;;;4982631;28;20072;-87
2023/04/22 02:40:40;;;;;;;24.50;13.98;;;9.80;99.90;;;;;;4984586;28;20008;-87
2023/04/22 02:43:06;;;;;;;22.13;14.18;;;9.80;99.90;;;;;;4985963;28;20096;-87
2023/04/22 02:45:34;;;;;;;23.42;14.75;;;9.90;99.90;;;;;;4983246;28;20665;-87
2023/04/22 02:47:59;;;;;;;22.92;14.00;;;9.90;99.90;;;;;;4984917;28;20026;-86
2023/04/22 02:50:25;;;;;;;21.98;13.10;;;9.90;99.90;;;;;;4982077;28;20037;-87
2023/04/22 02:52:50;;;;;;;22.85;13.88;;;9.90;99.90;;;;;;4985545;28;20148;-87
2023/04/22 02:55:16;;;;;;;20.55;13.30;;;10.00;99.90;;;;;;4985926;28;20030;-87
2023/04/22 02:57:42;;;;;;;22.65;14.73;;;10.00;99.90;;;;;;4983659;28;20553;-87
2023/04/22 03:00:09;;;;;;;20.88;14.27;;;10.00;99.90;;;;;;4983850;28;20029;-86
2023/04/22 03:02:35;;;;;;;22.55;14.73;;;10.00;99.90;;;;;;4986384;28;20029;-87
2023/04/22 03:05:03;;;;;;;26.27;15.95;;;10.00;99.90;;;;;;4984649;28;20040;-87
2023/04/22 03:07:28;;;;;;;21.00;14.40;;;10.00;99.90;;;;;;4985905;28;20252;-86
2023/04/22 03:09:54;;;;;;;32.30;16.13;;;10.10;99.90;;;;;;4986280;28;20022;-89
2023/04/22 03:12:20;;;;;;;24.95;15.30;;;10.10;99.90;;;;;;4986483;28;20033;-87
2023/04/22 03:14:46;;;;;;;27.25;15.52;;;10.10;99.90;;;;;;5002335;28;20429;-88
2023/04/22 03:17:12;;;;;;;22.83;15.13;;;10.10;99.90;;;;;;5001200;28;20579;-87
2023/04/22 03:19:37;;;;;;;22.83;14.77;;;10.10;99.90;;;;;;4990025;28;20121;-88
2023/04/22 03:22:03;;;;;;;26.42;15.55;;;10.20;99.90;;;;;;4987674;28;20105;-88
2023/04/22 03:24:29;;;;;;;21.88;14.90;;;10.10;99.90;;;;;;5001685;28;20819;-88
2023/04/22 03:26:54;;;;;;;27.42;15.02;;;10.20;99.90;;;;;;4989482;28;20029;-87
2023/04/22 03:29:20;;;;;;;23.75;15.35;;;10.10;99.90;;;;;;4986426;28;20104;-88
2023/04/22 03:31:45;;;;;;;21.92;14.55;;;10.10;99.90;;;;;;4988607;28;20030;-87
2023/04/22 03:34:11;;;;;;;27.90;14.55;;;10.10;99.90;;;;;;4987627;28;20118;-88
2023/04/22 03:36:37;;;;;;;23.27;14.68;;;10.10;99.90;;;;;;4988809;28;20020;-88
2023/04/22 03:39:02;;;;;;;24.55;15.43;;;10.10;99.90;;;;;;4985100;28;20076;-88
2023/04/22 03:41:28;;;;;;;22.48;15.00;;;10.20;99.90;;;;;;4987335;28;20038;-88
2023/04/22 03:43:54;;;;;;;22.90;15.07;;;10.20;99.90;;;;;;4987952;28;20022;-88
2023/04/22 03:46:19;;;;;;;25.73;15.95;;;10.20;99.90;;;;;;4990240;28;20026;-87
2023/04/22 03:48:45;;;;;;;24.73;15.45;;;10.20;99.90;;;;;;4987829;28;20128;-88
2023/04/22 03:51:10;;;;;;;23.63;15.20;;;10.30;99.90;;;;;;4985698;28;20041;-87
2023/04/22 03:53:36;;;;;;;28.48;16.08;;;10.20;99.90;;;;;;4987243;28;20030;-87
2023/04/22 03:56:10;;;;;;;26.98;16.45;;;10.30;99.90;;;;;;4987619;28;20030;-88
2023/04/22 03:58:36;;;;;;;24.25;14.90;;;10.30;99.90;;;;;;5003415;28;20038;-87
2023/04/22 04:01:02;;;;;;;24.23;15.13;;;10.30;99.90;;;;;;4987001;28;20427;-87
2023/04/22 04:03:28;;;;;;;22.60;14.60;;;10.30;99.90;;;;;;4997800;28;20014;-88
2023/04/22 04:05:53;;;;;;;22.80;14.93;;;10.30;99.90;;;;;;5011708;28;20053;-87
2023/04/22 04:08:19;;;;;;;21.75;14.45;;;10.30;99.90;;;;;;5007574;28;20169;-87
2023/04/22 04:10:44;;;;;;;22.73;14.82;;;10.30;99.90;;;;;;5009394;28;20022;-87
2023/04/22 04:13:10;;;;;;;24.70;15.60;;;10.30;99.90;;;;;;5012875;28;20034;-85
2023/04/22 04:15:36;;;;;;;24.33;14.98;;;10.40;99.90;;;;;;5010412;28;20094;-87
2023/04/22 04:18:04;;;;;;;21.45;14.82;;;10.40;99.90;;;;;;4994515;28;20032;-87
2023/04/22 04:20:29;;;;;;;25.50;15.93;;;10.40;99.90;;;;;;4983963;28;20015;-87
2023/04/22 04:22:55;;;;;;;23.95;14.82;;;10.40;99.90;;;;;;4987192;28;20049;-88
2023/04/22 04:25:21;;;;;;;24.40;15.27;;;10.40;99.90;;;;;;4987315;28;20030;-87
2023/04/22 04:27:49;;;;;;;22.08;14.98;;;10.40;99.90;;;;;;4985903;28;20413;-87
2023/04/22 04:30:15;;;;;;;23.88;14.98;;;10.50;99.90;;;;;;4989098;28;20041;-88
2023/04/22 04:32:41;;;;;;;23.52;15.60;;;10.50;99.90;;;;;;4984305;28;20030;-87
2023/04/22 04:35:08;;;;;;;25.40;14.93;;;10.50;99.90;;;;;;4988440;28;20018;-87
2023/04/22 04:37:33;;;;;;;22.73;15.32;;;10.60;99.90;;;;;;4985712;28;20064;-87
2023/04/22 04:39:59;;;;;;;26.45;15.90;;;10.50;99.90;;;;;;4988534;28;20049;-87
2023/04/22 04:42:24;;;;;;;27.60;15.05;;;10.50;99.90;;;;;;4998270;28;20124;-86
2023/04/22 04:44:50;;;;;;;22.70;15.27;;;10.50;99.90;;;;;;4993811;28;20469;-87
2023/04/22 04:47:16;;;;;;;31.92;15.15;;;10.50;99.90;;;;;;4987486;28;20022;-87
2023/04/22 04:49:42;;;;;;;24.88;14.98;;;10.60;99.90;;;;;;4986147;28;20056;-87
2023/04/22 04:52:10;;;;;;;24.00;15.07;;;10.60;99.90;;;;;;4986983;28;20423;-87
2023/04/22 04:54:36;;;;;;;24.63;15.60;;;10.60;99.90;;;;;;4986543;28;20057;-87
2023/04/22 04:57:02;;;;;;;26.75;15.38;;;10.60;99.90;;;;;;4985121;28;20030;-87
2023/04/22 04:59:28;;;;;;;25.23;15.55;;;10.50;99.90;;;;;;4986469;28;20032;-87
2023/04/22 05:01:53;;;;;;;22.52;15.27;;;10.50;99.90;;;;;;4985508;28;20022;-87
2023/04/22 05:04:20;;;;;;;22.58;14.55;;;10.60;99.90;;;;;;4981585;28;20105;-88
2023/04/22 05:06:46;;;;;;;25.25;15.52;;;10.60;99.90;;;;;;4987610;28;20061;-87
2023/04/22 05:09:12;;;;;;;23.35;14.23;;;10.60;99.90;;;;;;4987802;28;20700;-87
2023/04/22 05:11:37;;;;;;;26.25;15.02;;;10.60;99.90;;;;;;4985874;28;20121;-87
2023/04/22 05:14:04;;;;;;;23.67;15.07;;;10.60;99.90;;;;;;4988279;28;20026;-87
2023/04/22 05:16:31;;;;;;;24.55;14.00;;;10.60;99.90;;;;;;4987954;28;20033;-87
2023/04/22 05:18:56;;;;;;;22.30;14.05;;;10.70;99.90;;;;;;4988165;28;20018;-87
2023/04/22 05:21:22;;;;;;;22.63;13.75;;;10.70;99.90;;;;;;4985755;28;20021;-87
2023/04/22 05:23:48;;;;;;;23.90;15.13;;;10.70;99.90;;;;;;4986755;28;20386;-87
2023/04/22 05:26:14;;;;;;;18.48;14.20;;;10.70;99.90;;;;;;4985926;28;20076;-88
2023/04/22 05:28:39;;;;;;;23.58;14.23;;;10.80;99.90;;;;;;4985906;28;20386;-87
2023/04/22 05:31:05;;;;;;;21.52;14.00;;;10.80;99.90;;;;;;4987994;28;20054;-87
2023/04/22 05:33:31;;;;;;;22.55;13.85;;;10.80;99.90;;;;;;4985235;28;20038;-87
2023/04/22 05:35:57;;;;;;;22.13;13.85;;;10.80;99.90;;;;;;4963432;28;20031;-88
2023/04/22 05:38:22;;;;;;;18.88;12.93;;;10.90;99.90;;;;;;4962991;28;20050;-87
2023/04/22 05:40:48;;;;;;;23.15;12.95;;;11.00;99.90;;;;;;4962583;28;20030;-88
2023/04/22 05:43:14;;;;;;;22.02;12.70;;;11.00;99.90;;;;;;4962545;28;20602;-87
2023/04/22 05:45:40;;;;;;;19.20;13.30;;;11.10;99.90;;;;;;4961757;28;20243;-87
2023/04/22 05:48:06;;;;;;;22.67;12.55;;;11.10;99.90;;;;;;4948046;28;20038;-87
2023/04/22 05:50:31;;;;;;;18.00;12.43;;;11.10;99.90;;;;;;4962907;28;20376;-87
2023/04/22 05:52:57;;;;;;;18.75;12.13;;;11.20;99.90;;;;;;4950126;28;20233;-88
2023/04/22 05:55:23;;;;;;;17.60;12.55;;;11.20;99.90;;;;;;4965043;28;20440;-87
2023/04/22 05:57:49;;;;;;;19.23;13.07;;;11.20;99.90;;;;;;4946623;28;20034;-87
2023/04/22 06:00:18;;;;;;;23.13;13.38;;;11.30;99.90;;;;;;4962813;28;20090;-88
2023/04/22 06:02:43;;;;;;;23.40;13.10;;;11.40;99.90;;;;;;4961751;28;20696;-88
2023/04/22 06:05:09;;;;;;;18.15;12.07;;;11.50;99.90;;;;;;4964212;28;20138;-88
2023/04/22 06:07:35;;;;;;;18.08;12.25;;;11.50;99.90;;;;;;4973519;28;20113;-88
2023/04/22 06:10:00;;;;;;;20.15;12.75;;;11.60;99.90;;;;;;4988192;28;20172;-88
2023/04/22 06:12:26;;;;;;;19.15;11.48;;;11.70;99.90;;;;;;4984647;28;20029;-88
2023/04/22 06:14:52;;;;;;;18.85;11.95;;;11.80;99.90;;;;;;4986631;28;20034;-88
2023/04/22 06:17:17;;;;;;;17.92;11.93;;;11.80;99.90;;;;;;4987446;28;20034;-88
2023/04/22 06:19:43;;;;;;;19.08;10.60;;;11.80;99.90;;;;;;4988756;28;20589;-88
2023/04/22 06:22:08;;;;;;;19.27;11.25;;;11.90;99.90;;;;;;4993184;28;20031;-88
2023/04/22 06:24:34;;;;;;;17.63;11.10;;;12.00;99.90;;;;;;5000416;28;20057;-87
2023/04/22 06:27:01;;;;;;;16.92;11.00;;;12.10;99.90;;;;;;4995651;28;20036;-88
2023/04/22 06:29:26;;;;;;;17.27;11.07;;;12.10;99.90;;;;;;4987226;28;20292;-88
2023/04/22 06:31:53;;;;;;;15.82;10.15;;;12.10;99.90;;;;;;4984833;28;20038;-88
2023/04/22 06:34:19;;;;;;;14.90;10.45;;;12.10;99.90;;;;;;4982653;28;20137;-88
2023/04/22 06:36:44;;;;;;;15.05;10.63;;;12.20;99.90;;;;;;4985857;28;20113;-88
2023/04/22 06:39:10;;;;;;;14.95;10.65;;;12.20;99.90;;;;;;4985082;28;20077;-88
2023/04/22 06:41:36;;;;;;;16.25;10.07;;;12.30;99.90;;;;;;4984921;28;20034;-89
2023/04/22 06:44:16;;;;;;;15.32;10.00;;;12.30;99.90;;;;;;4985994;28;20026;-87
2023/04/22 06:46:42;;;;;;;16.00;10.25;;;12.30;99.90;;;;;;4980185;28;20059;-81
2023/04/22 06:49:07;;;;;;;14.07;9.63;;;12.30;99.90;;;;;;4985467;28;20058;-80
2023/04/22 06:51:33;;;;;;;14.52;9.40;;;12.30;99.90;;;;;;4984708;28;20026;-93
2023/04/22 06:53:58;;;;;;;13.23;9.70;;;12.40;99.90;;;;;;5046231;23;20077;-91
2023/04/22 06:56:24;;;;;;;16.70;10.23;;;12.40;99.90;;;;;;5000821;28;20587;-80
2023/04/22 06:58:52;;;;;;;16.48;8.95;;;12.50;99.90;;;;;;4991676;28;20037;-86
2023/04/22 07:01:20;;;;;;;15.38;9.70;;;12.60;99.90;;;;;;4993137;28;20539;-84
2023/04/22 07:03:46;;;;;;;12.23;9.63;;;12.80;99.90;;;;;;4991693;28;20038;-84
2023/04/22 07:06:20;;;;;;;14.65;8.82;;;12.90;99.90;;;;;;5011193;28;20543;-80
2023/04/22 07:08:46;;;;;;;19.30;8.93;;;13.00;99.90;;;;;;4987940;28;20035;-83
2023/04/22 07:11:14;;;;;;;432.83;184.27;;;13.10;99.90;;;;;;4981351;28;20072;-85
2023/04/22 07:13:40;;;;;;;21.15;11.93;;;13.20;99.90;;;;;;4986663;28;20034;-81
2023/04/22 07:16:06;;;;;;;17.60;8.45;;;13.30;99.90;;;;;;4984480;28;20030;-83
2023/04/22 07:18:34;;;;;;;11.63;8.80;;;13.40;99.90;;;;;;4984243;28;20520;-85
2023/04/22 07:21:02;;;;;;;15.43;8.00;;;13.50;99.90;;;;;;4987881;28;20449;-83
2023/04/22 07:23:30;;;;;;;75.65;30.90;;;13.70;99.90;;;;;;4983339;28;20045;-82
2023/04/22 07:25:56;;;;;;;15.55;10.48;;;13.80;99.90;;;;;;4988823;28;20045;-85
2023/04/22 07:28:21;;;;;;;12.30;7.00;;;14.00;99.90;;;;;;4990498;28;20117;-81
2023/04/22 07:30:47;;;;;;;7.95;6.70;;;14.20;99.90;;;;;;4980055;28;20041;-83
2023/04/22 07:33:13;;;;;;;11.88;6.47;;;14.40;99.90;;;;;;5003714;28;20105;-83
2023/04/22 07:35:46;;;;;;;10.60;6.93;;;14.50;99.90;;;;;;4989707;28;20033;-84
2023/04/22 07:38:12;;;;;;;10.82;6.55;;;14.60;99.90;;;;;;4983429;28;20026;-85
2023/04/22 07:40:37;;;;;;;8.73;6.88;;;14.70;99.90;;;;;;4998238;28;20030;-83
2023/04/22 07:43:04;;;;;;;10.93;6.13;;;14.90;99.90;;;;;;4987128;28;20113;-81
2023/04/22 07:45:30;;;;;;;8.75;6.03;;;15.00;99.90;;;;;;4989693;28;20037;-81
2023/04/22 07:47:56;;;;;;;13.60;6.18;;;15.10;99.90;;;;;;4988656;28;20030;-82
2023/04/22 07:50:22;;;;;;;12.32;6.72;;;15.20;99.90;;;;;;4985484;28;20041;-81
2023/04/22 07:52:47;;;;;;;6.97;5.82;;;15.40;99.90;;;;;;4987900;28;20044;-81
2023/04/22 07:55:16;;;;;;;11.88;6.20;;;15.50;99.90;;;;;;4987674;28;20545;-81
2023/04/22 07:57:49;;;;;;;10.70;6.10;;;15.70;99.90;;;;;;4985006;28;20037;-82
2023/04/22 08:00:14;;;;;;;;;;;15.90;99.90;;;;;;4982593;28;20800;-82
2023/04/22 08:02:40;;;;;;;11.55;5.10;;;16.10;99.90;;;;;;4987490;28;19914;-81
2023/04/22 08:05:06;;;;;;;10.13;6.45;;;16.40;99.90;;;;;;4988915;28;20096;-82
2023/04/22 08:07:32;;;;;;;8.10;5.10;;;16.70;99.90;;;;;;4985401;28;20038;-81
2023/04/22 08:10:01;;;;;;;10.45;5.45;;;17.00;99.90;;;;;;4979276;28;20030;-81
2023/04/22 08:12:26;;;;;;;147.68;51.80;;;17.30;99.90;;;;;;4985930;28;20757;-81
2023/04/22 08:14:59;;;;;;;10.02;5.15;;;17.70;99.90;;;;;;4986991;28;20018;-80
2023/04/22 08:17:25;;;;;;;12.68;6.32;;;18.10;99.90;;;;;;4980752;28;20254;-82
2023/04/22 08:19:51;;;;;;;8.30;3.45;;;18.30;99.90;;;;;;4984608;28;20475;-83
2023/04/22 08:22:17;;;;;;;3.75;3.05;;;18.20;99.90;;;;;;4987424;28;20034;-82
2023/04/22 08:24:43;;;;;;;8.40;3.78;;;18.00;99.90;;;;;;4988955;28;20046;-82
2023/04/22 08:27:09;;;;;;;14.70;3.67;;;17.90;99.90;;;;;;4988513;28;20577;-83
2023/04/22 08:29:36;;;;;;;4.38;3.80;;;18.10;99.90;;;;;;4992094;28;20042;-83
2023/04/22 08:32:02;;;;;;;8.82;3.85;;;18.30;99.90;;;;;;4985333;28;20034;-81
2023/04/22 08:34:27;;;;;;;5.63;3.92;;;18.70;99.90;;;;;;4987731;28;20041;-85
2023/04/22 08:36:53;;;;;;;3.97;3.55;;;19.00;99.90;;;;;;4986536;28;20073;-82
2023/04/22 08:39:19;;;;;;;3.63;3.13;;;19.10;99.90;;;;;;4980973;28;20030;-82
2023/04/22 08:41:47;;;;;;;7.90;3.50;;;19.40;99.90;;;;;;4982727;28;20022;-84
2023/04/22 08:44:14;;;;;;;10.55;3.50;;;19.50;99.90;;;;;;4988074;28;20341;-83
2023/04/22 08:46:45;;;;;;;5.78;3.30;;;19.40;99.90;;;;;;4986622;28;20042;-83
2023/04/22 08:49:14;;;;;;;4.72;3.25;;;19.50;99.90;;;;;;4981756;28;20046;-84
2023/04/22 08:51:41;;;;;;;5.88;2.83;;;19.40;99.90;;;;;;4982513;28;20018;-83
2023/04/22 08:54:06;;;;;;;3.40;3.10;;;19.30;99.90;;;;;;5003767;28;20038;-83
2023/04/22 08:56:34;;;;;;;4.68;3.03;;;19.20;99.90;;;;;;4985181;28;20023;-83
2023/04/22 08:59:00;;;;;;;30.38;10.05;;;19.30;99.90;;;;;;4982371;28;20073;-83
2023/04/22 09:01:29;;;;;;;4.00;3.70;;;19.10;99.90;;;;;;4986246;28;20838;-83
2023/04/22 09:03:59;;;;;;;4.05;3.08;;;19.20;99.90;;;;;;5001186;28;20166;-83
2023/04/22 09:06:28;;;;;;;5.03;3.30;;;19.10;99.90;;;;;;4985525;28;20307;-87
2023/04/22 09:08:54;;;;;;;5.03;3.50;;;18.90;99.90;;;;;;5003788;28;20498;-86
2023/04/22 09:11:20;;;;;;;8.93;3.50;;;18.90;99.90;;;;;;4980122;28;20025;-82
2023/04/22 09:13:46;;;;;;;4.50;4.00;;;19.00;99.90;;;;;;4987331;28;20590;-84
2023/04/22 09:16:12;;;;;;;3.88;3.35;;;19.20;99.90;;;;;;4983859;28;20122;-83
2023/04/22 09:18:44;;;;;;;6.32;4.03;;;19.30;99.90;;;;;;4985842;28;20079;-86
2023/04/22 09:21:10;;;;;;;6.75;3.75;;;19.30;99.90;;;;;;4983760;28;20113;-85
2023/04/22 09:24:06;;;;;;;6.82;4.53;;;19.40;99.90;;;;;;4983321;28;20031;-78
2023/04/22 09:26:40;;;;;;;7.25;3.72;;;19.60;99.90;;;;;;4971938;28;20034;-77
2023/04/22 09:29:08;;;;;;;6.35;3.55;;;20.10;99.90;;;;;;4982421;28;20030;-78
2023/04/22 09:31:34;;;;;;;4.22;3.42;;;20.40;99.80;;;;;;4982341;28;20109;-77
2023/04/22 09:34:00;;;;;;;10.32;5.55;;;20.50;98.90;;;;;;4986388;28;20132;-80
2023/04/22 09:36:27;;;;;;;7.55;4.90;;;20.80;96.90;;;;;;4982009;28;20540;-80
2023/04/22 09:38:58;;;;;;;6.45;3.78;;;21.30;97.10;;;;;;4982879;28;20066;-79
2023/04/22 09:41:29;;;;;;;10.43;3.53;;;21.80;95.00;;;;;;4980874;28;20461;-79
2023/04/22 09:43:59;;;;;;;7.18;4.10;;;22.40;92.50;;;;;;4976501;28;20152;-73
2023/04/22 09:46:26;;;;;;;3.85;3.45;;;22.80;91.00;;;;;;4980765;28;20042;-87
2023/04/22 09:48:54;;;;;;;9.35;3.95;;;22.90;90.10;;;;;;4994204;28;20188;-86
2023/04/22 09:51:20;;;;;;;3.95;3.63;;;23.20;90.80;;;;;;4978120;28;20073;-86
2023/04/22 09:53:57;;;;;;;4.40;4.00;;;23.50;87.30;;;;;;4987928;28;20085;-87
2023/04/22 09:57:13;;;;;;;3.97;3.58;;;23.70;83.20;;;;;;5009259;28;20026;-86
2023/04/22 09:59:39;;;;;;;4.35;3.92;;;23.90;82.40;;;;;;4977427;28;20769;-85
2023/04/22 10:04:53;;;;;;;4.40;4.00;;;23.00;82.60;;;;;;4982041;28;20038;-82
2023/04/22 10:07:19;;;;;;;4.88;3.60;;;22.90;85.20;;;;;;4989884;28;20383;-82
2023/04/22 10:09:45;;;;;;;4.32;3.92;;;23.00;85.00;;;;;;4988361;28;20055;-83
2023/04/22 10:12:12;;;;;;;4.22;3.83;;;23.40;83.50;;;;;;4974958;28;20417;-83
2023/04/22 10:14:37;;;;;;;182.65;85.72;;;23.60;83.70;;;;;;4974106;28;20514;-79
2023/04/22 10:17:05;;;;;;;7.40;5.20;;;23.80;83.10;;;;;;4989570;28;20022;-84
2023/04/22 10:19:33;;;;;;;3.83;3.17;;;23.60;78.00;;;;;;4979693;28;20027;-84
2023/04/22 10:22:01;;;;;;;5.60;4.00;;;23.80;79.30;;;;;;4961509;28;20398;-84
2023/04/22 10:24:33;;;;;;;7.75;4.07;;;23.80;78.70;;;;;;4998475;28;20722;-85
2023/04/22 10:27:21;;;;;;;6.68;4.60;;;24.00;78.80;;;;;;4994892;28;20101;-80
2023/04/22 10:29:45;;;;;;;4.88;4.47;;;24.20;78.20;;;;;;4981140;28;20390;-84
2023/04/22 10:32:17;;;;;;;5.88;4.70;;;24.40;78.00;;;;;;4979788;28;20133;-84
2023/04/22 10:34:46;;;;;;;6.20;4.75;;;24.20;78.10;;;;;;4982708;28;20133;-83
2023/04/22 10:37:16;;;;;;;9.43;4.68;;;24.00;76.80;;;;;;4983257;28;20761;-82
2023/04/22 10:40:02;;;;;;;5.57;5.07;;;24.30;76.40;;;;;;4989829;28;20414;-82
2023/04/22 10:42:28;;;;;;;7.15;4.60;;;24.60;76.60;;;;;;4994220;28;20079;-82
2023/04/22 10:44:59;;;;;;;4.00;3.50;;;25.20;74.80;;;;;;4992672;28;20569;-83
2023/04/22 10:47:31;;;;;;;4.03;3.60;;;24.90;75.10;;;;;;4976980;28;20080;-85
2023/04/22 10:50:12;;;;;;;4.72;4.05;;;25.00;72.10;;;;;;4958734;28;20121;-77
2023/04/22 10:52:38;;;;;;;4.32;3.40;;;25.10;73.40;;;;;;4986201;28;20041;-84
2023/04/22 10:55:04;;;;;;;8.70;4.15;;;24.70;74.30;;;;;;4976018;28;20495;-82
2023/04/22 10:57:40;;;;;;;7.15;3.90;;;24.80;73.40;;;;;;4979080;28;20527;-87
2023/04/22 11:00:29;;;;;;;4.10;3.63;;;24.40;72.10;;;;;;4978202;28;20010;-87
2023/04/22 11:03:15;;;;;;;6.78;3.60;;;24.40;73.50;;;;;;4964690;28;20030;-82
2023/04/22 11:05:42;;;;;;;5.40;2.95;;;24.40;73.30;;;;;;4960426;28;20125;-82
2023/04/22 11:08:19;;;;;;;4.78;3.50;;;24.50;72.60;;;;;;4975308;28;20053;-86
2023/04/22 11:10:47;;;;;;;4.43;3.60;;;24.70;72.00;;;;;;4977378;28;20045;-87
2023/04/22 11:13:15;;;;;;;7.50;4.10;;;25.10;72.90;;;;;;4995686;28;20053;-87
2023/04/22 11:15:43;;;;;;;5.50;3.60;;;25.40;72.60;;;;;;4979984;28;20025;-87
2023/04/22 11:18:31;;;;;;;4.40;4.00;;;25.40;70.10;;;;;;4958326;28;20124;-84
2023/04/22 11:21:05;;;;;;;6.72;3.85;;;25.50;70.00;;;;;;4954726;28;20034;-84
2023/04/22 11:23:31;;;;;;;8.02;3.83;;;25.20;69.40;;;;;;4957933;28;20042;-82
2023/04/22 11:26:02;;;;;;;4.32;3.53;;;25.40;70.00;;;;;;4976596;28;20106;-86
2023/04/22 11:28:28;;;;;;;4.60;4.18;;;25.10;70.70;;;;;;4961804;28;20257;-81
2023/04/22 11:31:02;;;;;;;5.70;4.22;;;25.10;71.40;;;;;;4969674;28;20189;-84
2023/04/22 11:33:27;;;;;;;8.65;5.43;;;25.30;72.10;;;;;;4968364;28;20134;-80
2023/04/22 11:35:54;;;;;;;5.40;4.00;;;25.70;70.50;;;;;;4994687;28;20144;-87
2023/04/22 11:38:19;;;;;;;6.30;4.50;;;25.30;68.60;;;;;;4996674;28;20034;-88
2023/04/22 11:40:45;;;;;;;4.38;3.70;;;25.30;71.20;;;;;;4989551;28;20084;-80
2023/04/22 11:43:11;;;;;;;6.25;4.00;;;25.70;70.10;;;;;;5020886;28;20089;-80
2023/04/22 11:45:38;;;;;;;5.68;3.83;;;25.60;69.20;;;;;;5018396;28;20022;-80
2023/04/22 11:48:08;;;;;;;22.00;11.68;;;24.90;69.60;;;;;;4992461;28;20029;-76
2023/04/22 11:50:36;;;;;;;7.57;3.78;;;24.60;72.40;;;;;;4980359;28;20049;-80
2023/04/22 11:53:22;;;;;;;3.55;3.25;;;24.70;72.10;;;;;;4982389;28;20235;-82
2023/04/22 11:55:50;;;;;;;4.45;3.78;;;24.60;74.00;;;;;;4973767;28;20177;-85
2023/04/22 11:58:26;;;;;;;5.68;3.95;;;24.20;72.60;;;;;;4982551;28;20516;-83
2023/04/22 12:00:55;;;;;;;7.70;4.60;;;24.20;73.80;;;;;;4980559;28;20109;-85
2023/04/22 12:03:24;;;;;;;11.70;4.40;;;24.10;75.20;;;;;;4999885;28;20117;-85
2023/04/22 12:05:56;;;;;;;5.15;3.67;;;23.80;74.30;;;;;;4996280;28;20096;-82
2023/04/22 12:08:30;;;;;;;8.85;4.30;;;24.00;75.00;;;;;;4998115;28;20090;-84
2023/04/22 12:11:05;;;;;;;4.88;3.20;;;24.30;75.10;;;;;;4978337;28;20476;-84
2023/04/22 12:13:33;;;;;;;6.30;3.30;;;24.60;74.00;;;;;;4997893;28;20088;-86
2023/04/22 12:16:04;;;;;;;6.15;3.03;;;25.00;72.10;;;;;;4981472;28;20587;-86
2023/04/22 12:18:39;;;;;;;10.40;3.30;;;25.10;71.60;;;;;;4983352;28;20065;-85
2023/04/22 12:21:11;;;;;;;6.22;3.80;;;24.90;71.20;;;;;;4980019;28;20037;-85
2023/04/22 12:24:02;;;;;;;7.43;3.33;;;25.00;72.80;;;;;;4979890;28;20105;-86
2023/04/22 12:26:27;;;;;;;3.42;2.92;;;25.10;70.30;;;;;;4979137;28;20043;-84
2023/04/22 12:28:55;;;;;;;4.68;2.95;;;25.30;70.90;;;;;;4996558;28;20399;-81
2023/04/22 12:31:21;;;;;;;7.13;3.17;;;25.60;69.70;;;;;;4979823;28;20149;-76
2023/04/22 12:33:49;;;;;;;3.38;2.75;;;25.40;69.90;;;;;;4979310;28;20057;-81
2023/04/22 12:36:16;;;;;;;3.00;2.80;;;24.90;71.20;;;;;;4998948;28;20631;-82
2023/04/22 12:38:42;;;;;;;3.97;3.10;;;24.50;72.10;;;;;;5000939;28;20301;-81
2023/04/22 12:41:08;;;;;;;3.97;3.30;;;24.20;73.10;;;;;;4997180;28;20065;-81
2023/04/22 12:43:38;;;;;;;3.47;3.17;;;24.10;74.50;;;;;;4985041;28;20023;-83